createdAt,value
2022-12-03T00:02:01.372Z,20.55
2022-12-03T00:04:27.928Z,21.70
2022-12-03T00:06:54.644Z,21.95
2022-12-03T00:09:21.279Z,22.52
2022-12-03T00:11:47.934Z,25.65
2022-12-03T00:14:14.509Z,21.85
2022-12-03T00:16:41.113Z,22.80
2022-12-03T00:19:07.846Z,20.13
2022-12-03T00:21:34.584Z,22.30
2022-12-03T00:24:01.247Z,19.17
2022-12-03T00:26:27.846Z,23.52
2022-12-03T00:28:55.138Z,22.58
2022-12-03T00:31:23.425Z,24.27
2022-12-03T00:33:53.157Z,21.08
2022-12-03T00:36:20.184Z,23.65
2022-12-03T00:38:46.931Z,26.23
2022-12-03T00:41:13.593Z,22.73
2022-12-03T00:43:40.164Z,21.35
2022-12-03T00:46:06.871Z,23.00
2022-12-03T00:48:33.525Z,20.73
2022-12-03T00:51:00.231Z,19.55
2022-12-03T00:53:26.790Z,20.92
2022-12-03T00:55:53.402Z,23.48
2022-12-03T00:58:20.119Z,21.98
2022-12-03T01:00:46.703Z,19.52
2022-12-03T01:03:13.344Z,22.67
2022-12-03T01:05:39.954Z,21.85
2022-12-03T01:08:06.621Z,20.15
2022-12-03T01:10:33.306Z,20.27
2022-12-03T01:12:59.944Z,23.17
2022-12-03T01:15:26.530Z,21.27
2022-12-03T01:17:54.318Z,22.20
2022-12-03T01:20:21.050Z,20.08
2022-12-03T01:22:47.770Z,22.08
2022-12-03T01:25:14.394Z,20.00
2022-12-03T01:27:41.039Z,23.23
2022-12-03T01:30:08.027Z,22.30
2022-12-03T01:32:34.663Z,19.48
2022-12-03T01:35:01.312Z,20.35
2022-12-03T01:37:27.960Z,23.08
2022-12-03T01:39:54.745Z,18.95
2022-12-03T01:42:23.675Z,19.65
2022-12-03T01:44:54.248Z,16.30
2022-12-03T01:47:24.630Z,17.60
2022-12-03T01:49:56.515Z,14.65
2022-12-03T01:52:27.047Z,17.63
2022-12-03T01:54:55.858Z,16.90
2022-12-03T01:57:27.798Z,17.60
2022-12-03T01:59:55.825Z,18.55
2022-12-03T02:02:27.092Z,17.70
2022-12-03T02:04:53.987Z,17.00
2022-12-03T02:07:25.720Z,15.80
2022-12-03T02:09:52.982Z,19.70
2022-12-03T02:12:21.358Z,17.17
2022-12-03T02:14:48.417Z,19.02
2022-12-03T02:17:16.512Z,20.17
2022-12-03T02:19:43.263Z,17.98
2022-12-03T02:22:19.063Z,18.83
2022-12-03T02:24:52.039Z,17.58
2022-12-03T02:27:18.897Z,19.55
2022-12-03T02:29:45.757Z,21.13
2022-12-03T02:32:12.422Z,19.67
2022-12-03T02:34:43.321Z,20.08
2022-12-03T02:37:11.764Z,19.67
2022-12-03T02:39:39.357Z,19.92
2022-12-03T02:42:25.051Z,20.35
2022-12-03T02:44:52.231Z,20.73
2022-12-03T02:47:20.993Z,21.70
2022-12-03T02:49:47.789Z,19.92
2022-12-03T02:52:14.477Z,22.45
2022-12-03T02:54:41.428Z,19.70
2022-12-03T02:57:08.122Z,21.85
2022-12-03T02:59:34.785Z,22.52
2022-12-03T03:02:01.671Z,21.80
2022-12-03T03:04:28.888Z,20.85
2022-12-03T03:06:55.698Z,20.60
2022-12-03T03:09:22.450Z,27.83
2022-12-03T03:11:49.072Z,21.65
2022-12-03T03:14:15.863Z,23.60
2022-12-03T03:16:42.617Z,21.52
2022-12-03T03:19:12.410Z,22.67
2022-12-03T03:21:39.070Z,23.52
2022-12-03T03:24:05.853Z,23.73
2022-12-03T03:26:32.614Z,21.67
2022-12-03T03:29:00.273Z,24.73
2022-12-03T03:31:27.982Z,24.33
2022-12-03T03:33:55.099Z,22.67
2022-12-03T03:36:22.648Z,25.85
2022-12-03T03:38:49.386Z,23.73
2022-12-03T03:41:16.465Z,21.20
2022-12-03T03:43:44.300Z,22.55
2022-12-03T03:46:11.180Z,20.92
2022-12-03T03:48:38.993Z,23.52
2022-12-03T03:51:09.069Z,23.08
2022-12-03T03:53:40.290Z,21.80
2022-12-03T03:56:07.370Z,23.48
2022-12-03T03:58:34.140Z,22.85
2022-12-03T04:01:01.026Z,20.10
2022-12-03T04:03:28.683Z,22.08
2022-12-03T04:05:55.470Z,22.65
2022-12-03T04:08:22.129Z,21.13
2022-12-03T04:11:07.521Z,20.88
2022-12-03T04:13:34.246Z,21.00
2022-12-03T04:16:00.994Z,21.02
2022-12-03T04:18:42.967Z,21.55
2022-12-03T04:21:28.664Z,22.25
2022-12-03T04:23:55.441Z,21.17
2022-12-03T04:26:40.678Z,21.75
2022-12-03T04:29:07.691Z,22.17
2022-12-03T04:31:53.018Z,22.40
2022-12-03T04:34:38.316Z,21.00
2022-12-03T04:37:05.031Z,21.70
2022-12-03T04:39:31.715Z,22.45
2022-12-03T04:41:58.305Z,21.67
2022-12-03T04:44:33.643Z,20.98
2022-12-03T04:47:00.706Z,21.23
2022-12-03T04:49:27.293Z,20.77
2022-12-03T04:51:54.011Z,21.83
2022-12-03T04:54:21.308Z,21.80
2022-12-03T04:56:47.981Z,22.98
2022-12-03T04:59:16.546Z,23.90
2022-12-03T05:01:44.022Z,19.80
2022-12-03T05:04:10.909Z,19.60
2022-12-03T05:06:37.796Z,20.70
2022-12-03T05:09:04.522Z,21.00
2022-12-03T05:11:31.205Z,20.02
2022-12-03T05:13:57.863Z,19.88
2022-12-03T05:16:24.622Z,19.67
2022-12-03T05:18:51.367Z,20.33
2022-12-03T05:21:18.023Z,18.98
2022-12-03T05:23:44.805Z,18.67
2022-12-03T05:26:11.521Z,19.65
2022-12-03T05:28:38.118Z,17.63
2022-12-03T05:31:05.788Z,17.15
2022-12-03T05:33:32.574Z,20.08
2022-12-03T05:35:59.157Z,17.55
2022-12-03T05:38:25.737Z,16.52
2022-12-03T05:40:52.394Z,18.60
2022-12-03T05:43:19.058Z,18.70
2022-12-03T05:45:45.823Z,16.25
2022-12-03T05:48:13.584Z,16.52
2022-12-03T05:50:40.997Z,16.98
2022-12-03T05:53:13.646Z,15.80
2022-12-03T05:55:40.292Z,18.98
2022-12-03T05:58:06.962Z,16.65
2022-12-03T06:00:42.522Z,17.27
2022-12-03T06:03:10.419Z,20.75
2022-12-03T06:05:37.407Z,16.65
2022-12-03T06:08:04.162Z,16.48
2022-12-03T06:10:30.923Z,18.60
2022-12-03T06:12:57.631Z,17.30
2022-12-03T06:15:24.506Z,18.38
2022-12-03T06:17:51.208Z,15.85
2022-12-03T06:20:20.272Z,15.85
2022-12-03T06:22:47.581Z,19.35
2022-12-03T06:25:15.051Z,16.30
2022-12-03T06:27:41.654Z,16.23
2022-12-03T06:30:12.206Z,17.52
2022-12-03T06:32:38.858Z,20.85
2022-12-03T06:35:05.632Z,17.42
2022-12-03T06:37:32.310Z,17.75
2022-12-03T06:39:58.933Z,18.02
2022-12-03T06:42:25.683Z,17.15
2022-12-03T06:44:52.879Z,17.77
2022-12-03T06:47:19.844Z,18.92
2022-12-03T06:49:46.491Z,17.00
2022-12-03T06:52:13.154Z,15.48
2022-12-03T06:54:39.835Z,17.15
2022-12-03T06:57:06.516Z,17.20
2022-12-03T06:59:34.204Z,18.38
2022-12-03T07:02:01.390Z,17.52
2022-12-03T07:04:28.181Z,17.85
2022-12-03T07:06:54.823Z,16.20
2022-12-03T07:09:21.480Z,20.77
2022-12-03T07:11:48.119Z,19.48
2022-12-03T07:14:14.858Z,17.10
2022-12-03T07:16:43.517Z,19.45
2022-12-03T07:19:10.392Z,17.63
2022-12-03T07:21:37.110Z,16.15
2022-12-03T07:24:03.916Z,17.63
2022-12-03T07:26:30.620Z,19.17
2022-12-03T07:28:57.242Z,18.83
2022-12-03T07:31:23.954Z,18.17
2022-12-03T07:33:50.666Z,19.25
2022-12-03T07:36:17.497Z,15.98
2022-12-03T07:38:44.145Z,17.90
2022-12-03T07:41:11.069Z,16.85
2022-12-03T07:43:37.751Z,18.70
2022-12-03T07:46:04.419Z,21.58
2022-12-03T07:48:31.056Z,22.73
2022-12-03T07:50:58.572Z,17.27
2022-12-03T07:53:25.146Z,17.10
2022-12-03T07:55:51.926Z,19.60
2022-12-03T07:58:18.582Z,23.33
2022-12-03T08:00:45.312Z,19.90
2022-12-03T08:03:12.097Z,18.85
2022-12-03T08:05:38.792Z,17.15
2022-12-03T08:08:05.688Z,18.48
2022-12-03T08:10:32.547Z,21.73
2022-12-03T08:12:59.651Z,19.20
2022-12-03T08:15:29.336Z,19.75
2022-12-03T08:18:00.413Z,18.67
2022-12-03T08:20:37.766Z,20.42
2022-12-03T08:23:09.854Z,20.05
2022-12-03T08:25:36.489Z,21.33
2022-12-03T08:28:10.932Z,17.65
2022-12-03T08:30:37.561Z,17.73
2022-12-03T08:33:18.452Z,18.58
2022-12-03T08:35:48.259Z,18.75
2022-12-03T08:38:15.496Z,19.73
2022-12-03T08:40:43.111Z,20.52
2022-12-03T08:43:15.934Z,18.35
2022-12-03T08:45:42.816Z,18.95
2022-12-03T08:48:26.106Z,18.27
2022-12-03T08:50:56.984Z,19.60
2022-12-03T08:53:23.698Z,17.55
2022-12-03T08:55:54.409Z,18.33
2022-12-03T08:58:24.072Z,19.88
2022-12-03T09:00:58.121Z,19.77
2022-12-03T09:03:24.856Z,18.15
2022-12-03T09:05:51.748Z,16.73
2022-12-03T09:08:18.436Z,18.25
2022-12-03T09:10:45.038Z,17.33
2022-12-03T09:13:11.648Z,18.10
2022-12-03T09:15:38.298Z,19.30
2022-12-03T09:18:04.926Z,18.17
2022-12-03T09:20:31.487Z,17.30
2022-12-03T09:22:58.124Z,16.13
2022-12-03T09:25:24.823Z,14.77
2022-12-03T09:27:51.486Z,17.10
2022-12-03T09:30:18.130Z,16.67
2022-12-03T09:32:44.770Z,15.50
2022-12-03T09:35:11.445Z,16.05
2022-12-03T09:37:38.127Z,14.48
2022-12-03T09:40:05.316Z,16.10
2022-12-03T09:42:32.036Z,14.40
2022-12-03T09:44:58.812Z,14.75
2022-12-03T09:47:26.970Z,15.23
2022-12-03T09:49:53.855Z,14.05
2022-12-03T09:52:26.170Z,16.77
2022-12-03T09:54:54.619Z,15.38
2022-12-03T09:57:21.553Z,15.30
2022-12-03T09:59:48.220Z,14.15
2022-12-03T10:02:29.363Z,12.85
2022-12-03T10:04:56.820Z,13.38
2022-12-03T10:07:25.047Z,14.20
2022-12-03T10:09:52.005Z,15.27
2022-12-03T10:12:23.496Z,17.77
2022-12-03T10:14:50.393Z,15.20
2022-12-03T10:17:17.558Z,14.43
2022-12-03T10:19:44.808Z,12.80
2022-12-03T10:22:27.234Z,14.82
2022-12-03T10:25:05.518Z,14.65
2022-12-03T10:27:32.193Z,16.30
2022-12-03T10:29:59.755Z,16.33
2022-12-03T10:32:27.790Z,15.00
2022-12-03T10:35:06.519Z,18.33
2022-12-03T10:37:33.328Z,16.77
2022-12-03T10:40:00.895Z,16.95
2022-12-03T10:42:32.200Z,16.80
2022-12-03T10:45:18.980Z,16.02
2022-12-03T10:48:21.116Z,16.70
2022-12-03T10:50:54.939Z,16.65
2022-12-03T10:53:22.718Z,14.13
2022-12-03T10:55:51.469Z,15.70
2022-12-03T10:58:28.428Z,14.00
2022-12-03T11:00:55.788Z,15.88
2022-12-03T11:03:23.836Z,16.05
2022-12-03T11:05:51.273Z,16.20
2022-12-03T11:08:20.893Z,15.88
2022-12-03T11:11:03.198Z,15.73
2022-12-03T11:13:32.656Z,15.68
2022-12-03T11:16:03.782Z,15.30
2022-12-03T11:18:36.673Z,13.00
2022-12-03T11:21:13.871Z,16.02
2022-12-03T11:23:46.558Z,17.23
2022-12-03T11:26:18.898Z,17.23
2022-12-03T11:28:46.069Z,17.00
2022-12-03T11:31:45.400Z,17.75
2022-12-03T11:34:18.999Z,17.27
2022-12-03T11:37:04.483Z,13.75
2022-12-03T11:39:49.738Z,14.85
2022-12-03T11:42:28.615Z,16.02
2022-12-03T11:45:04.508Z,14.45
2022-12-03T11:47:31.150Z,15.13
2022-12-03T11:49:58.071Z,14.40
2022-12-03T11:52:26.949Z,16.80
2022-12-03T11:54:55.738Z,13.23
2022-12-03T11:57:41.796Z,14.52
2022-12-03T12:00:15.788Z,14.75
2022-12-03T12:02:42.568Z,15.65
2022-12-03T12:05:38.566Z,14.40
2022-12-03T12:08:05.299Z,15.27
2022-12-03T12:10:38.733Z,15.18
2022-12-03T12:13:05.486Z,14.38
2022-12-03T12:15:33.081Z,13.65
2022-12-03T12:18:18.488Z,15.63
2022-12-03T12:20:45.231Z,16.40
2022-12-03T12:23:22.973Z,15.00
2022-12-03T12:25:54.158Z,15.27
2022-12-03T12:28:21.058Z,15.50
2022-12-03T12:30:47.768Z,14.02
2022-12-03T12:33:19.692Z,13.50
2022-12-03T12:35:46.394Z,14.07
2022-12-03T12:38:14.818Z,14.45
2022-12-03T12:40:42.579Z,15.85
2022-12-03T12:43:15.257Z,15.77
2022-12-03T12:45:44.540Z,14.65
2022-12-03T12:48:21.536Z,14.35
2022-12-03T12:50:49.179Z,16.92
2022-12-03T12:53:15.857Z,13.88
2022-12-03T12:55:42.555Z,15.70
2022-12-03T12:58:17.444Z,15.88
2022-12-03T13:00:50.298Z,15.07
2022-12-03T13:03:18.056Z,15.60
2022-12-03T13:05:49.641Z,15.10
2022-12-03T13:08:24.671Z,15.50
2022-12-03T13:10:52.741Z,14.52
2022-12-03T13:13:23.658Z,16.42
2022-12-03T13:15:53.775Z,14.32
2022-12-03T13:18:31.708Z,14.38
2022-12-03T13:20:58.479Z,14.40
2022-12-03T13:23:32.765Z,12.25
2022-12-03T13:26:09.507Z,15.90
2022-12-03T13:28:45.277Z,15.52
2022-12-03T13:31:21.997Z,15.00
2022-12-03T13:33:49.331Z,15.70
2022-12-03T13:36:16.413Z,16.60
2022-12-03T13:38:43.963Z,13.82
2022-12-03T13:41:34.701Z,13.88
2022-12-03T13:44:01.479Z,14.50
2022-12-03T13:46:32.330Z,13.18
2022-12-03T13:49:01.822Z,14.13
2022-12-03T13:51:32.197Z,14.30
2022-12-03T13:53:59.443Z,16.02
2022-12-03T13:56:27.818Z,14.88
2022-12-03T13:58:54.908Z,22.02
2022-12-03T14:01:21.763Z,21.73
2022-12-03T14:03:48.851Z,17.80
2022-12-03T14:06:15.581Z,19.15
2022-12-03T14:08:42.411Z,18.42
2022-12-03T14:11:09.018Z,19.95
2022-12-03T14:13:35.650Z,18.33
2022-12-03T14:16:02.472Z,18.08
2022-12-03T14:18:29.135Z,15.70
2022-12-03T14:20:55.730Z,18.80
2022-12-03T14:23:22.414Z,19.83
2022-12-03T14:25:49.035Z,20.17
2022-12-03T14:28:15.681Z,20.05
2022-12-03T14:30:42.308Z,22.08
2022-12-03T14:33:09.052Z,18.98
2022-12-03T14:35:35.661Z,16.65
2022-12-03T14:38:02.369Z,18.35
2022-12-03T14:40:28.957Z,18.48
2022-12-03T14:42:55.547Z,16.50
2022-12-03T14:45:23.044Z,18.52
2022-12-03T14:47:49.663Z,18.67
2022-12-03T14:50:16.397Z,18.05
2022-12-03T14:52:43.358Z,16.98
2022-12-03T14:55:09.999Z,18.92
2022-12-03T14:57:36.891Z,18.38
2022-12-03T15:00:04.782Z,19.70
2022-12-03T15:02:31.968Z,16.35
2022-12-03T15:04:58.712Z,16.45
2022-12-03T15:07:25.387Z,23.48
2022-12-03T15:09:52.444Z,16.38
2022-12-03T15:12:19.359Z,15.48
2022-12-03T15:14:46.031Z,19.52
2022-12-03T15:17:12.780Z,18.40
2022-12-03T15:19:39.507Z,17.15
2022-12-03T15:22:06.131Z,16.52
2022-12-03T15:24:32.795Z,18.20
2022-12-03T15:26:59.562Z,18.65
2022-12-03T15:29:26.344Z,17.40
2022-12-03T15:31:53.120Z,17.33
2022-12-03T15:34:22.789Z,18.77
2022-12-03T15:36:50.113Z,14.57
2022-12-03T15:39:16.744Z,17.02
2022-12-03T15:41:43.421Z,15.93
2022-12-03T15:44:10.040Z,15.57
2022-12-03T15:46:36.729Z,16.48
2022-12-03T15:49:03.485Z,16.50
2022-12-03T15:51:30.149Z,16.00
2022-12-03T15:53:56.747Z,16.00
2022-12-03T15:56:23.388Z,15.57
2022-12-03T15:58:50.035Z,17.77
2022-12-03T16:01:18.282Z,16.85
2022-12-03T16:03:45.310Z,17.23
2022-12-03T16:06:12.676Z,18.50
2022-12-03T16:08:39.427Z,17.17
2022-12-03T16:11:06.153Z,16.85
2022-12-03T16:13:32.841Z,20.75
2022-12-03T16:15:59.542Z,18.63
2022-12-03T16:18:26.227Z,19.02
2022-12-03T16:20:52.964Z,18.25
2022-12-03T16:23:19.602Z,18.65
2022-12-03T16:25:46.301Z,16.42
2022-12-03T16:28:13.007Z,18.13
2022-12-03T16:30:39.727Z,15.57
2022-12-03T16:33:06.436Z,18.73
2022-12-03T16:35:33.092Z,18.48
2022-12-03T16:37:59.777Z,17.23
2022-12-03T16:40:26.552Z,18.52
2022-12-03T16:42:53.152Z,18.23
2022-12-03T16:45:33.402Z,21.15
2022-12-03T16:48:00.772Z,17.60
2022-12-03T16:50:29.836Z,16.90
2022-12-03T16:52:57.142Z,16.02
2022-12-03T16:55:23.748Z,17.40
2022-12-03T16:57:50.416Z,17.25
2022-12-03T17:00:17.084Z,16.75
2022-12-03T17:02:43.720Z,16.58
2022-12-03T17:05:10.426Z,17.55
2022-12-03T17:07:37.150Z,17.35
2022-12-03T17:10:04.200Z,16.73
2022-12-03T17:13:00.727Z,14.43
2022-12-03T17:15:19.029Z,16.90
2022-12-03T17:17:45.690Z,16.38
2022-12-03T17:20:14.524Z,16.90
2022-12-03T17:22:41.310Z,15.82
2022-12-03T17:25:08.200Z,13.77
2022-12-03T17:27:34.953Z,14.95
2022-12-03T17:30:01.611Z,16.48
2022-12-03T17:32:28.288Z,16.77
2022-12-03T17:34:54.944Z,15.38
2022-12-03T17:37:21.519Z,15.88
2022-12-03T17:39:48.245Z,14.10
2022-12-03T17:42:14.937Z,14.70
2022-12-03T17:44:41.673Z,16.13
2022-12-03T17:47:08.405Z,15.40
2022-12-03T17:49:35.037Z,15.85
2022-12-03T17:52:01.741Z,16.85
2022-12-03T17:54:43.460Z,16.42
2022-12-03T17:57:15.306Z,18.25
2022-12-03T17:59:43.020Z,17.73
2022-12-03T18:02:09.687Z,16.75
2022-12-03T18:04:36.373Z,16.60
2022-12-03T18:07:03.678Z,18.13
2022-12-03T18:09:30.381Z,17.20
2022-12-03T18:11:57.083Z,17.98
2022-12-03T18:14:23.663Z,18.73
2022-12-03T18:16:50.421Z,20.67
2022-12-03T18:19:17.050Z,16.83
2022-12-03T18:21:43.659Z,18.10
2022-12-03T18:24:10.528Z,19.75
2022-12-03T18:26:37.413Z,19.60
2022-12-03T18:29:04.174Z,19.23
2022-12-03T18:31:30.899Z,18.02
2022-12-03T18:33:57.648Z,18.08
2022-12-03T18:36:26.248Z,17.98
2022-12-03T18:38:55.273Z,18.55
2022-12-03T18:41:24.840Z,21.27
2022-12-03T18:43:51.815Z,20.17
2022-12-03T18:46:45.182Z,21.58
2022-12-03T18:49:06.176Z,22.45
2022-12-03T18:51:32.815Z,21.80
2022-12-03T18:53:59.456Z,18.58
2022-12-03T18:56:26.134Z,19.88
2022-12-03T18:58:52.838Z,21.73
2022-12-03T19:01:21.368Z,21.38
2022-12-03T19:03:48.552Z,22.55
2022-12-03T19:06:19.070Z,21.10
2022-12-03T19:08:46.531Z,21.90
2022-12-03T19:11:16.071Z,24.90
2022-12-03T19:13:42.677Z,21.85
2022-12-03T19:16:10.522Z,21.23
2022-12-03T19:18:37.281Z,21.52
2022-12-03T19:21:08.162Z,21.75
2022-12-03T19:23:35.157Z,20.83
2022-12-03T19:26:03.543Z,22.80
2022-12-03T19:28:30.249Z,20.85
2022-12-03T19:31:01.806Z,20.52
2022-12-03T19:33:29.037Z,22.40
2022-12-03T19:35:56.565Z,20.60
2022-12-03T19:38:24.169Z,23.73
2022-12-03T19:41:01.495Z,22.30
2022-12-03T19:43:28.542Z,21.75
2022-12-03T19:45:55.285Z,19.90
2022-12-03T19:48:23.006Z,22.73
2022-12-03T19:51:02.931Z,22.88
2022-12-03T19:53:37.498Z,24.10
2022-12-03T19:56:05.195Z,25.10
2022-12-03T19:58:31.921Z,22.65
2022-12-03T20:01:06.038Z,23.15
2022-12-03T20:03:32.826Z,22.92
2022-12-03T20:06:00.012Z,22.15
2022-12-03T20:08:26.619Z,21.13
2022-12-03T20:10:53.191Z,22.70
2022-12-03T20:13:19.882Z,20.75
2022-12-03T20:15:46.494Z,21.25
2022-12-03T20:18:13.071Z,22.30
2022-12-03T20:20:39.724Z,21.80
2022-12-03T20:23:06.391Z,23.35
2022-12-03T20:25:35.848Z,19.58
2022-12-03T20:28:02.510Z,20.88
2022-12-03T20:30:31.968Z,22.77
2022-12-03T20:32:58.620Z,21.55
2022-12-03T20:35:25.251Z,23.23
2022-12-03T20:37:51.900Z,21.17
2022-12-03T20:40:18.594Z,22.70
2022-12-03T20:42:47.001Z,22.60
2022-12-03T20:45:13.614Z,20.83
2022-12-03T20:47:40.304Z,22.75
2022-12-03T20:50:07.416Z,21.08
2022-12-03T20:52:34.130Z,22.70
2022-12-03T20:55:00.781Z,20.33
2022-12-03T20:57:27.368Z,20.15
2022-12-03T20:59:54.803Z,20.25
2022-12-03T21:02:21.885Z,21.08
2022-12-03T21:04:48.629Z,22.83
2022-12-03T21:07:15.419Z,22.42
2022-12-03T21:09:42.133Z,24.83
2022-12-03T21:12:08.876Z,21.98
2022-12-03T21:14:35.856Z,23.90
2022-12-03T21:17:10.088Z,21.88
2022-12-03T21:19:37.094Z,23.52
2022-12-03T21:22:03.832Z,23.77
2022-12-03T21:24:30.886Z,24.98
2022-12-03T21:26:57.584Z,22.17
2022-12-03T21:29:24.595Z,26.08
2022-12-03T21:31:51.354Z,23.33
2022-12-03T21:34:18.005Z,24.17
2022-12-03T21:36:44.651Z,25.58
2022-12-03T21:39:11.281Z,25.58
2022-12-03T21:41:37.887Z,24.40
2022-12-03T21:44:04.464Z,26.63
2022-12-03T21:47:11.221Z,28.13
2022-12-03T21:49:19.495Z,26.50
2022-12-03T21:51:46.473Z,23.33
2022-12-03T21:54:13.361Z,24.08
2022-12-03T21:56:39.999Z,27.42
2022-12-03T21:59:06.603Z,30.35
2022-12-03T22:01:33.440Z,26.88
2022-12-03T22:04:00.299Z,28.63
2022-12-03T22:06:26.999Z,25.13
2022-12-03T22:08:53.598Z,26.10
2022-12-03T22:11:21.549Z,28.90
2022-12-03T22:13:48.156Z,28.20
2022-12-03T22:16:16.465Z,26.35
2022-12-03T22:18:43.230Z,29.45
2022-12-03T22:21:12.261Z,28.25
2022-12-03T22:23:42.214Z,30.38
2022-12-03T22:26:10.960Z,28.75
2022-12-03T22:28:37.704Z,29.38
2022-12-03T22:31:07.760Z,25.45
2022-12-03T22:33:34.559Z,27.05
2022-12-03T22:36:02.069Z,26.88
2022-12-03T22:38:29.180Z,29.13
2022-12-03T22:40:55.857Z,25.50
2022-12-03T22:43:22.789Z,29.38
2022-12-03T22:45:53.020Z,29.42
2022-12-03T22:48:19.667Z,29.73
2022-12-03T22:50:46.947Z,28.17
2022-12-03T22:53:14.687Z,29.02
2022-12-03T22:55:41.455Z,27.27
2022-12-03T22:58:08.791Z,32.35
2022-12-03T23:00:36.751Z,29.55
2022-12-03T23:03:04.060Z,27.85
2022-12-03T23:05:36.790Z,31.27
2022-12-03T23:08:07.398Z,27.15
2022-12-03T23:10:34.903Z,25.42
2022-12-03T23:13:01.904Z,30.70
2022-12-03T23:15:28.757Z,27.90
2022-12-03T23:17:55.437Z,27.27
2022-12-03T23:20:22.136Z,26.23
2022-12-03T23:22:48.746Z,29.75
2022-12-03T23:25:15.463Z,26.75
2022-12-03T23:27:42.919Z,25.75
2022-12-03T23:30:10.233Z,27.90
2022-12-03T23:32:37.330Z,27.88
2022-12-03T23:35:04.847Z,28.63
2022-12-03T23:37:31.488Z,27.55
2022-12-03T23:39:58.154Z,28.50
2022-12-03T23:42:24.894Z,26.55
2022-12-03T23:44:51.690Z,28.92
2022-12-03T23:47:18.327Z,27.30
2022-12-03T23:49:45.105Z,26.58
2022-12-03T23:52:11.742Z,27.95
2022-12-03T23:54:38.420Z,25.75
2022-12-03T23:57:05.039Z,27.30
2022-12-03T23:59:31.760Z,28.08
